Flight Track Log - Related Links

Times and Time Zones

All times are in EDT time to prevent confusion due to time zone crossing. See the SKW6486 flight status page for this flight to view local times or setup timezone preferences in your user account.

Time Position Orientation Groundspeed Altitude Reporting Facility
EDT Latitude Longitude Course Direction KTS MPH feet Rate Location/Type
Tue 07:01:22 PM 39.8833 -104.6167 343° North 146 168 6,600  Level Denver TRACON
Tue 07:02:22 PM 39.9000 -104.5500 72° East 191 220 8,000 1,450 Climbing Denver TRACON
Tue 07:03:22 PM 39.9667 -104.5667 349° North 227 261 9,500 1,500 Climbing Denver TRACON
Tue 07:04:22 PM 40.0167 -104.6000 333° Northwest 218 251 11,000 1,426 Climbing Denver TRACON
Tue 07:05:00 PM 40.0547 -104.7618 343° North  Level FlightAware Approximate
Tue 07:05:24 PM 40.0622 -104.6228 339° North 214 246 12,400  Level Denver Center
Tue 07:06:00 PM 40.1313 -104.7925 343° North  Level FlightAware Approximate
Tue 07:06:26 PM 40.1275 -104.6633 335° Northwest 212 244 13,800  Level Denver Center
Tue 07:07:28 PM 40.1850 -104.7044 331° Northwest 218 251 15,100 1,171 Climbing Denver Center
Tue 07:08:29 PM 40.2408 -104.7447 331° Northwest 229 264 16,200 1,122 Climbing Denver Center
Tue 07:09:31 PM 40.2969 -104.7806 334° Northwest 225 259 17,400 838 Climbing Denver Center
Tue 07:10:45 PM 40.3567 -104.8189 334° Northwest 224 258 18,100 838 Climbing Denver Center
Tue 07:11:47 PM 40.4247 -104.8633 334° Northwest 223 257 19,300 581 Climbing Denver Center
Tue 07:12:49 PM 40.4869 -104.8983 337° Northwest 244 281 19,300 532 Level Denver Center
Tue 07:13:51 PM 40.5550 -104.9439 333° Northwest 252 290 20,400 919 Climbing Denver Center
Tue 07:14:53 PM 40.6194 -104.9789 338° Northwest 250 288 21,200 780 Climbing Denver Center
Tue 07:15:54 PM 40.6828 -105.0228 332° Northwest 256 295 22,000 533 Climbing Denver Center
Tue 07:17:08 PM 40.7522 -105.0708 332° Northwest 256 295 22,400 569 Climbing Denver Center
Tue 07:18:11 PM 40.8306 -105.1236 333° Northwest 264 304 23,300 774 Climbing Denver Center
Tue 07:19:12 PM 40.8958 -105.1667 334° Northwest 264 304 24,000 683 Climbing Denver Center
Tue 07:20:14 PM 40.9597 -105.2067 335° Northwest 255 293 24,700 581 Climbing Denver Center
Tue 07:21:16 PM 41.0147 -105.2422 334° Northwest 252 290 25,200 484 Climbing Denver Center
Tue 07:22:18 PM 41.0972 -105.2933 335° Northwest 255 293 25,700 387 Climbing Denver Center
Tue 07:23:20 PM 41.1619 -105.3358 334° Northwest 264 304 26,000 145 Climbing Denver Center
Tue 07:24:22 PM 41.2372 -105.3808 336° Northwest 266 306 26,000  Level Denver Center
Tue 07:25:24 PM 41.3008 -105.4217 334° Northwest 266 306 26,000  Level Denver Center
Tue 07:26:26 PM 41.3744 -105.4703 334° Northwest 265 305 26,000  Level Denver Center
Tue 07:27:40 PM 41.4381 -105.5117 334° Northwest 265 305 26,000  Level Denver Center
Tue 07:28:42 PM 41.5203 -105.5650 334° Northwest 259 298 26,000  Level Denver Center
Tue 07:29:44 PM 41.5825 -105.6056 334° Northwest 259 298 26,000  Level Denver Center
Tue 07:30:46 PM 41.6547 -105.6522 334° Northwest 258 297 26,000  Level Denver Center
Tue 07:31:48 PM 41.7169 -105.6922 334° Northwest 258 297 26,000  Level Denver Center
Tue 07:32:50 PM 41.7900 -105.7397 334° Northwest 260 299 26,000  Level Denver Center
Tue 07:33:52 PM 41.8531 -105.7792 335° Northwest 260 299 26,000  Level Denver Center
Tue 07:34:54 PM 41.9158 -105.8200 334° Northwest 261 300 26,000  Level Denver Center
Tue 07:35:56 PM 41.9881 -105.8675 334° Northwest 261 300 26,000 -532 Level Denver Center
Tue 07:36:58 PM 42.0533 -105.9119 333° Northwest 267 307 24,900 -1,500 Descending Denver Center
Tue 07:38:00 PM 42.1361 -105.9647 335° Northwest 285 328 22,900 -1,707 Descending Denver Center
Tue 07:39:01 PM 42.1961 -106.0044 334° Northwest 294 338 21,400 -1,742 Descending Denver Center
Tue 07:40:04 PM 42.2783 -106.0581 334° Northwest 264 304 19,300 -1,776 Descending Denver Center
Tue 07:41:06 PM 42.3369 -106.0975 334° Northwest 251 289 17,700 -1,548 Descending Denver Center
Tue 07:42:08 PM 42.4025 -106.1394 335° Northwest 237 273 16,100 -1,500 Descending Denver Center
Tue 07:43:10 PM 42.4583 -106.1764 334° Northwest 234 269 14,600 -1,548 Descending Denver Center
Tue 07:44:12 PM 42.5186 -106.2178 333° Northwest 227 261 12,900 -1,258 Descending Denver Center
Tue 07:45:14 PM 42.5722 -106.2556 333° Northwest 224 258 12,000 -968 Descending Denver Center
Tue 07:46:16 PM 42.6372 -106.3117 328° Northwest 246 283 10,900 -829 Descending Denver Center
Tue 07:47:17 PM 42.6844 -106.3661 320° Northwest 266 306 10,300 -629 Descending Denver Center
Tue 07:48:20 PM 42.7517 -106.4281 326° Northwest 265 305 9,600 -864 Descending Denver Center
Tue 07:49:22 PM 42.8172 -106.4828 329° Northwest 256 295 8,500 -1,065 Descending Denver Center

Login

Don't have an account? Register now (free) for customized features, flight alerts, and more!